createdAt,value
2023-02-14T00:03:17.630Z,100.00
2023-02-14T00:08:19.036Z,100.00
2023-02-14T00:13:20.453Z,100.00
2023-02-14T00:18:21.968Z,100.00
2023-02-14T00:23:23.396Z,100.00
2023-02-14T00:28:24.831Z,100.00
2023-02-14T00:33:26.343Z,100.00
2023-02-14T00:38:27.773Z,100.00
2023-02-14T00:43:29.457Z,100.00
2023-02-14T00:48:30.905Z,100.00
2023-02-14T00:53:32.365Z,100.00
2023-02-14T00:58:34.118Z,100.00
2023-02-14T01:03:36.139Z,100.00
2023-02-14T01:08:38.073Z,100.00
2023-02-14T01:13:40.605Z,100.00
2023-02-14T01:18:42.652Z,100.00
2023-02-14T01:23:45.271Z,100.00
2023-02-14T01:28:46.928Z,100.00
2023-02-14T01:33:49.759Z,100.00
2023-02-14T01:38:53.469Z,100.00
2023-02-14T01:44:02.305Z,100.00
2023-02-14T01:49:13.116Z,100.00
2023-02-14T01:54:15.008Z,100.00
2023-02-14T01:59:20.822Z,100.00
2023-02-14T02:04:30.427Z,100.00
2023-02-14T02:09:50.662Z,100.00
2023-02-14T02:14:55.418Z,100.00
2023-02-14T02:20:16.765Z,100.00
2023-02-14T02:25:47.423Z,100.00
2023-02-14T02:31:10.030Z,100.00
2023-02-14T02:36:11.448Z,100.00
2023-02-14T02:41:34.001Z,100.00
2023-02-14T02:46:48.348Z,100.00
2023-02-14T02:52:14.729Z,100.00
2023-02-14T02:57:23.708Z,100.00
2023-02-14T03:03:00.758Z,100.00
2023-02-14T03:08:03.898Z,100.00
2023-02-14T03:13:30.838Z,100.00
2023-02-14T03:19:14.413Z,100.00
2023-02-14T03:24:31.546Z,100.00
2023-02-14T03:29:50.483Z,100.00
2023-02-14T03:34:59.241Z,100.00
2023-02-14T03:40:13.295Z,100.00
2023-02-14T03:45:22.571Z,100.00
2023-02-14T03:50:25.475Z,100.00
2023-02-14T03:55:35.186Z,100.00
2023-02-14T04:00:41.043Z,100.00
2023-02-14T04:05:46.765Z,100.00
2023-02-14T04:10:49.059Z,100.00
2023-02-14T04:15:50.563Z,100.00
2023-02-14T04:20:52.153Z,100.00
2023-02-14T04:25:53.601Z,100.00
2023-02-14T04:30:55.377Z,100.00
2023-02-14T04:35:56.951Z,100.00
2023-02-14T04:40:58.605Z,100.00
2023-02-14T04:46:00.216Z,100.00
2023-02-14T04:51:01.872Z,100.00
2023-02-14T04:56:03.511Z,100.00
2023-02-14T05:01:05.025Z,100.00
2023-02-14T05:06:06.540Z,100.00
2023-02-14T05:11:07.988Z,100.00
2023-02-14T05:16:09.525Z,100.00
2023-02-14T05:21:11.566Z,100.00
2023-02-14T05:26:13.016Z,100.00
2023-02-14T05:31:14.694Z,100.00
2023-02-14T05:36:16.302Z,100.00
2023-02-14T05:41:17.987Z,100.00
2023-02-14T05:46:19.392Z,100.00
2023-02-14T05:51:20.798Z,100.00
2023-02-14T05:56:22.192Z,100.00
2023-02-14T06:01:23.647Z,100.00
2023-02-14T06:06:25.137Z,100.00
2023-02-14T06:11:26.558Z,100.00
2023-02-14T06:16:28.056Z,100.00
2023-02-14T06:21:29.538Z,100.00
2023-02-14T06:26:31.159Z,100.00
2023-02-14T06:31:32.820Z,100.00
2023-02-14T06:36:34.946Z,100.00
2023-02-14T06:41:36.854Z,100.00
2023-02-14T06:46:38.268Z,100.00
2023-02-14T06:51:39.728Z,100.00
2023-02-14T06:56:41.168Z,100.00
2023-02-14T07:01:42.851Z,100.00
2023-02-14T07:06:46.340Z,100.00
2023-02-14T07:11:48.104Z,100.00
2023-02-14T07:16:49.623Z,100.00
2023-02-14T07:21:51.151Z,100.00
2023-02-14T07:26:52.758Z,100.00
2023-02-14T07:31:54.531Z,100.00
2023-02-14T07:36:56.115Z,100.00
2023-02-14T07:41:57.611Z,100.00
2023-02-14T07:46:59.255Z,100.00
2023-02-14T07:52:01.054Z,100.00
2023-02-14T07:57:02.943Z,100.00
2023-02-14T08:02:04.492Z,100.00
2023-02-14T08:07:05.954Z,100.00
2023-02-14T08:12:26.163Z,100.00
2023-02-14T08:17:27.677Z,100.00
2023-02-14T08:22:29.162Z,100.00
2023-02-14T08:27:30.593Z,100.00
2023-02-14T08:32:32.318Z,100.00
2023-02-14T08:37:34.224Z,100.00
2023-02-14T08:42:35.813Z,100.00
2023-02-14T08:47:38.605Z,100.00
2023-02-14T08:52:41.613Z,100.00
2023-02-14T08:57:43.025Z,99.93
2023-02-14T09:02:44.541Z,100.00
2023-02-14T09:07:46.138Z,100.00
2023-02-14T09:12:47.691Z,100.00
2023-02-14T09:17:49.329Z,100.00
2023-02-14T09:22:51.071Z,100.00
2023-02-14T09:27:52.988Z,99.62
2023-02-14T09:32:54.589Z,99.30
2023-02-14T09:37:56.124Z,99.10
2023-02-14T09:43:31.152Z,98.95
2023-02-14T09:48:38.376Z,98.06
2023-02-14T09:53:53.744Z,98.03
2023-02-14T09:59:05.062Z,98.11
2023-02-14T10:04:30.181Z,97.09
2023-02-14T10:09:50.502Z,97.09
2023-02-14T10:14:56.158Z,96.95
2023-02-14T10:20:01.260Z,96.47
2023-02-14T10:25:36.670Z,96.32
2023-02-14T10:30:40.449Z,95.47
2023-02-14T10:36:00.644Z,94.91
2023-02-14T10:41:05.240Z,94.26
2023-02-14T10:46:22.351Z,93.75
2023-02-14T10:51:34.056Z,94.09
2023-02-14T10:56:43.379Z,93.91
2023-02-14T11:01:46.010Z,93.12
2023-02-14T11:06:49.340Z,93.54
2023-02-14T11:11:54.538Z,92.81
2023-02-14T11:16:57.776Z,91.18
2023-02-14T11:22:00.477Z,91.88
2023-02-14T11:27:03.617Z,90.52
2023-02-14T11:32:11.063Z,91.37
2023-02-14T11:37:21.735Z,88.73
2023-02-14T11:42:41.760Z,89.69
2023-02-14T11:47:43.299Z,89.06
2023-02-14T11:52:54.084Z,87.92
2023-02-14T11:57:57.653Z,87.01
2023-02-14T12:03:03.428Z,87.25
2023-02-14T12:08:08.172Z,87.22
2023-02-14T12:19:41.226Z,85.69
2023-02-14T12:24:58.647Z,86.32
2023-02-14T12:30:15.681Z,85.17
2023-02-14T12:35:42.169Z,85.04
2023-02-14T12:41:06.778Z,84.84
2023-02-14T12:46:30.935Z,85.28
2023-02-14T12:51:58.688Z,85.21
2023-02-14T12:57:12.705Z,85.12
2023-02-14T13:02:35.968Z,85.34
2023-02-14T13:08:10.247Z,85.79
2023-02-14T13:13:25.864Z,84.29
2023-02-14T13:18:36.211Z,84.32
2023-02-14T13:23:44.274Z,84.89
2023-02-14T13:29:01.918Z,85.72
2023-02-14T13:34:09.092Z,85.82
2023-02-14T13:39:18.344Z,85.58
2023-02-14T13:44:38.665Z,86.84
2023-02-14T13:49:48.927Z,86.04
2023-02-14T13:54:50.517Z,86.83
2023-02-14T14:00:17.041Z,86.50
2023-02-14T14:05:30.840Z,87.38
2023-02-14T14:10:55.484Z,86.03
2023-02-14T14:16:20.620Z,87.22
2023-02-14T14:21:30.787Z,87.77
2023-02-14T14:26:39.968Z,88.05
2023-02-14T14:31:41.825Z,87.33
2023-02-14T14:36:44.003Z,87.55
2023-02-14T14:41:45.475Z,86.87
2023-02-14T14:46:47.133Z,86.43
2023-02-14T14:51:49.142Z,88.00
2023-02-14T14:57:01.883Z,87.44
2023-02-14T15:02:21.813Z,87.29
2023-02-14T15:07:32.752Z,86.68
2023-02-14T15:12:53.763Z,87.57
2023-02-14T15:18:00.907Z,87.19
2023-02-14T15:23:05.275Z,87.15
2023-02-14T15:28:07.251Z,87.18
2023-02-14T15:33:14.538Z,87.30
2023-02-14T15:38:16.391Z,86.55
2023-02-14T15:43:18.384Z,87.66
2023-02-14T15:48:40.392Z,88.44
2023-02-14T15:53:51.218Z,88.67
2023-02-14T15:59:12.346Z,89.79
2023-02-14T16:04:13.991Z,90.30
2023-02-14T16:09:27.556Z,91.27
2023-02-14T16:14:32.391Z,92.82
2023-02-14T16:19:38.914Z,92.36
2023-02-14T16:24:42.045Z,94.73
2023-02-14T16:29:43.568Z,94.02
2023-02-14T16:34:47.455Z,93.91
2023-02-14T16:39:51.587Z,95.17
2023-02-14T16:44:53.561Z,95.67
2023-02-14T16:49:55.279Z,95.94
2023-02-14T16:54:57.304Z,96.48
2023-02-14T16:59:58.959Z,97.46
2023-02-14T17:05:00.511Z,97.58
2023-02-14T17:10:07.426Z,97.22
2023-02-14T17:15:15.169Z,97.50
2023-02-14T17:20:19.326Z,97.96
2023-02-14T17:25:21.072Z,98.19
2023-02-14T17:30:23.095Z,98.38
2023-02-14T17:35:24.603Z,99.09
2023-02-14T17:40:28.030Z,98.49
2023-02-14T17:45:29.653Z,99.60
2023-02-14T17:50:31.221Z,99.54
2023-02-14T17:55:35.693Z,99.37
2023-02-14T18:00:37.184Z,99.42
2023-02-14T18:05:38.647Z,99.41
2023-02-14T18:10:40.080Z,99.76
2023-02-14T18:15:41.501Z,100.00
2023-02-14T18:20:43.250Z,100.00
2023-02-14T18:25:50.420Z,100.00
2023-02-14T18:30:53.109Z,100.00
2023-02-14T18:35:54.572Z,100.00
2023-02-14T18:40:56.021Z,100.00
2023-02-14T18:46:06.121Z,100.00
2023-02-14T18:51:14.127Z,100.00
2023-02-14T18:56:18.660Z,100.00
2023-02-14T19:01:23.390Z,100.00
2023-02-14T19:06:25.805Z,100.00
2023-02-14T19:11:31.416Z,100.00
2023-02-14T19:16:34.059Z,100.00
2023-02-14T19:21:35.633Z,100.00
2023-02-14T19:26:40.606Z,100.00
2023-02-14T19:31:45.101Z,100.00
2023-02-14T19:36:48.045Z,100.00
2023-02-14T19:41:51.240Z,100.00
2023-02-14T19:46:56.671Z,100.00
2023-02-14T19:51:58.901Z,100.00
2023-02-14T19:57:00.311Z,100.00
2023-02-14T20:02:01.872Z,100.00
2023-02-14T20:07:04.860Z,100.00
2023-02-14T20:12:06.815Z,100.00
2023-02-14T20:17:08.291Z,100.00
2023-02-14T20:22:09.749Z,100.00
2023-02-14T20:27:11.970Z,100.00
2023-02-14T20:32:15.862Z,100.00
2023-02-14T20:37:17.864Z,100.00
2023-02-14T20:42:19.555Z,100.00
2023-02-14T20:47:21.119Z,100.00
2023-02-14T20:52:22.779Z,100.00
2023-02-14T20:57:25.309Z,100.00
2023-02-14T21:02:27.340Z,100.00
2023-02-14T21:07:31.244Z,100.00
2023-02-14T21:12:32.750Z,100.00
2023-02-14T21:17:34.214Z,100.00
2023-02-14T21:22:35.611Z,100.00
2023-02-14T21:27:38.282Z,100.00
2023-02-14T21:32:39.806Z,100.00
2023-02-14T21:37:41.431Z,100.00
2023-02-14T21:42:43.823Z,100.00
2023-02-14T21:48:05.495Z,100.00
2023-02-14T21:53:07.691Z,100.00
2023-02-14T21:58:09.111Z,100.00
2023-02-14T22:03:12.330Z,100.00
2023-02-14T22:08:15.413Z,100.00
2023-02-14T22:13:16.845Z,100.00
2023-02-14T22:18:18.812Z,100.00
2023-02-14T22:23:21.112Z,100.00
2023-02-14T22:28:23.105Z,100.00
2023-02-14T22:33:24.578Z,100.00
2023-02-14T22:38:26.657Z,100.00
2023-02-14T22:43:28.732Z,100.00
2023-02-14T22:48:32.412Z,100.00
2023-02-14T22:53:35.117Z,100.00
2023-02-14T22:58:37.067Z,100.00
2023-02-14T23:03:38.580Z,100.00
2023-02-14T23:08:45.601Z,100.00
2023-02-14T23:14:21.151Z,100.00
2023-02-14T23:19:47.328Z,100.00
2023-02-14T23:24:50.330Z,100.00
2023-02-14T23:29:51.879Z,100.00
2023-02-14T23:34:53.876Z,100.00
2023-02-14T23:39:55.582Z,100.00
2023-02-14T23:45:17.444Z,100.00
2023-02-14T23:50:19.168Z,100.00
2023-02-14T23:55:22.258Z,100.00
